^^

..:: Storico WU ::..




Lo storico viene creato da WUnderground con i dati che la stazione Meteomincio invia al loro server. L' aggiornamento viene fatto ogni 5 minuti circa, tuttavia possono esserci intervalli pił ampi a causa di errori, interruzioni di servizio o problemi nell' invio tramite FTP.


Storico stazione MeteoMincio
Giorno Sommario per Aprile 02, 2022 Unità:  Inglese    Metrico   Entrambi
Giorno Settimana Mese Anno
  Max: Min: Media:
Temperatura: 55.4 °F 42.8 °F 47.8 °F
Dew Point: 41 °F 35.6 °F 38.5 °F
Umidità: 83% 50% 71%
Velocità vento: 17.4mph 0.6mph 6.6mph
Raffica: 24.2mph - -
Direzione- - ESE
Pressione: 29.7 in 29.4 in -
Precipitazioni: 0.01 in    
 
 
Tabulato Dati per Aprile 02, 2022
Ora Temperatura Dew Point Pressione Direzione Velocità vento Raffica Umidità Intensità pioggia (oraria) Info solare Situazione
00:04 48.2 °F 41 °F 29.4 in WNW 4.3 mph 6.8 mph 75% 0 in 0.00 W/m2 unknown
00:09 48.2 °F 39.2 °F 29.4 in WNW 5 mph 6.8 mph 74% 0 in 0.00 W/m2 unknown
00:14 48.2 °F 39.2 °F 29.4 in West 3.7 mph 6.8 mph 74% 0 in 0.00 W/m2 unknown
00:19 48.2 °F 39.2 °F 29.4 in West 3.1 mph 3.7 mph 74% 0 in 0.00 W/m2 unknown
00:24 48.2 °F 41 °F 29.4 in WNW 2.5 mph 3.7 mph 75% 0 in 0.00 W/m2 unknown
00:29 48.2 °F 39.2 °F 29.4 in WNW 2.5 mph 3.7 mph 75% 0 in 0.00 W/m2 unknown
00:34 48.2 °F 39.2 °F 29.4 in West 2.5 mph 3.7 mph 75% 0 in 0.00 W/m2 unknown
00:39 48.2 °F 41 °F 29.4 in West 2.5 mph 3.7 mph 76% 0 in 0.00 W/m2 unknown
00:44 46.4 °F 41 °F 29.4 in WSW 1.9 mph 3.1 mph 78% 0 in 0.00 W/m2 unknown
00:49 46.4 °F 41 °F 29.4 in WSW 1.2 mph 2.5 mph 78% 0 in 0.00 W/m2 unknown
00:54 46.4 °F 41 °F 29.4 in WSW 1.2 mph 2.5 mph 80% 0 in 0.00 W/m2 unknown
00:59 46.4 °F 41 °F 29.4 in WSW 1.2 mph 2.5 mph 83% 0 in 0.00 W/m2 unknown
01:04 46.4 °F 41 °F 29.4 in SW 1.9 mph 3.7 mph 83% 0 in 0.00 W/m2 unknown
01:09 46.4 °F 41 °F 29.4 in SSW 3.1 mph 3.7 mph 80% 0 in 0.00 W/m2 unknown
01:14 46.4 °F 41 °F 29.4 in SSW 3.1 mph 3.7 mph 79% 0 in 0.00 W/m2 unknown
01:19 46.4 °F 41 °F 29.4 in SSW 3.7 mph 5 mph 79% 0 in 0.00 W/m2 unknown
01:24 46.4 °F 39.2 °F 29.4 in SSW 4.3 mph 6.2 mph 77% 0 in 0.00 W/m2 unknown
01:29 46.4 °F 41 °F 29.4 in SSW 3.7 mph 6.2 mph 78% 0 in 0.00 W/m2 unknown
01:34 46.4 °F 41 °F 29.4 in SSW 3.7 mph 5 mph 78% 0 in 0.00 W/m2 unknown
01:39 46.4 °F 39.2 °F 29.4 in SSW 3.7 mph 5 mph 77% 0 in 0.00 W/m2 unknown
01:44 46.4 °F 39.2 °F 29.4 in SW 5 mph 6.2 mph 77% 0 in 0.00 W/m2 unknown
01:49 46.4 °F 39.2 °F 29.4 in SW 5 mph 6.2 mph 77% 0 in 0.00 W/m2 unknown
01:54 46.4 °F 39.2 °F 29.4 in SSW 5 mph 6.2 mph 76% 0 in 0.00 W/m2 unknown
01:59 46.4 °F 39.2 °F 29.4 in SSW 6.2 mph 8.7 mph 76% 0 in 0.00 W/m2 unknown
02:04 46.4 °F 39.2 °F 29.4 in SSW 8.7 mph 11.8 mph 75% 0 in 0.00 W/m2 unknown
02:09 48.2 °F 37.4 °F 29.4 in SW 8.7 mph 11.8 mph 71% 0 in 0.00 W/m2 unknown
02:14 48.2 °F 37.4 °F 29.4 in SSW 8.1 mph 11.8 mph 71% 0 in 0.00 W/m2 unknown
02:24 48.2 °F 37.4 °F 29.4 in SSW 12.4 mph 18.6 mph 69% 0 in 0.00 W/m2 unknown
02:29 46.4 °F 37.4 °F 29.4 in SSW 8.7 mph 18 mph 70% 0 in 0.00 W/m2 unknown
02:34 46.4 °F 37.4 °F 29.4 in South 8.1 mph 11.8 mph 72% 0 in 0.00 W/m2 unknown
02:39 46.4 °F 37.4 °F 29.4 in South 6.8 mph 11.8 mph 72% 0 in 0.00 W/m2 unknown
02:44 46.4 °F 37.4 °F 29.4 in SSW 6.2 mph 8.1 mph 72% 0 in 0.00 W/m2 unknown
02:49 46.4 °F 37.4 °F 29.4 in South 6.8 mph 8.1 mph 71% 0 in 0.00 W/m2 unknown
02:54 46.4 °F 37.4 °F 29.4 in South 5 mph 8.1 mph 72% 0 in 0.00 W/m2 unknown
02:59 46.4 °F 37.4 °F 29.4 in South 5 mph 8.1 mph 72% 0 in 0.00 W/m2 unknown
03:04 46.4 °F 37.4 °F 29.4 in SSE 5 mph 8.1 mph 70% 0 in 0.00 W/m2 unknown
03:09 46.4 °F 37.4 °F 29.4 in South 4.3 mph 6.8 mph 71% 0 in 0.00 W/m2 unknown
03:14 46.4 °F 37.4 °F 29.4 in South 5 mph 6.8 mph 71% 0 in 0.00 W/m2 unknown
03:19 46.4 °F 37.4 °F 29.4 in South 3.7 mph 6.8 mph 72% 0 in 0.00 W/m2 unknown
03:24 46.4 °F 37.4 °F 29.4 in SE 3.7 mph 6.2 mph 72% 0 in 0.00 W/m2 unknown
03:29 46.4 °F 37.4 °F 29.4 in SSE 3.1 mph 5 mph 72% 0 in 0.00 W/m2 unknown
03:34 46.4 °F 37.4 °F 29.4 in SSE 3.7 mph 6.8 mph 72% 0 in 0.00 W/m2 unknown
03:39 46.4 °F 37.4 °F 29.4 in South 5 mph 6.8 mph 71% 0 in 0.00 W/m2 unknown
03:44 46.4 °F 35.6 °F 29.4 in South 5 mph 6.8 mph 69% 0 in 0.00 W/m2 unknown
03:49 46.4 °F 35.6 °F 29.4 in SSW 5.6 mph 8.1 mph 68% 0 in 0.00 W/m2 unknown
03:54 46.4 °F 35.6 °F 29.4 in SSW 5 mph 8.1 mph 67% 0 in 0.00 W/m2 unknown
03:59 46.4 °F 35.6 °F 29.4 in SSW 3.1 mph 6.8 mph 68% 0 in 0.00 W/m2 unknown
04:04 46.4 °F 35.6 °F 29.4 in SSW 2.5 mph 3.7 mph 69% 0 in 0.00 W/m2 unknown
04:09 46.4 °F 37.4 °F 29.4 in SSW 1.9 mph 3.7 mph 70% 0 in 0.00 W/m2 unknown
04:14 46.4 °F 37.4 °F 29.4 in SSW 1.2 mph 2.5 mph 71% 0 in 0.00 W/m2 unknown
04:19 44.6 °F 37.4 °F 29.4 in SSW 1.2 mph 2.5 mph 71% 0 in 0.00 W/m2 unknown
04:24 44.6 °F 37.4 °F 29.4 in SSW 1.2 mph 2.5 mph 72% 0 in 0.00 W/m2 unknown
04:29 44.6 °F 37.4 °F 29.4 in SSW 1.2 mph 2.5 mph 72% 0 in 0.00 W/m2 unknown
04:34 44.6 °F 35.6 °F 29.4 in SSW 1.2 mph 2.5 mph 71% 0 in 0.00 W/m2 unknown
04:39 44.6 °F 37.4 °F 29.4 in South 0.6 mph 2.5 mph 74% 0 in 0.00 W/m2 unknown
04:44 44.6 °F 37.4 °F 29.4 in South 1.9 mph 2.5 mph 75% 0 in 0.00 W/m2 unknown
04:49 44.6 °F 37.4 °F 29.4 in ESE 1.9 mph 3.7 mph 75% 0 in 0.00 W/m2 unknown
04:54 44.6 °F 37.4 °F 29.4 in East 1.9 mph 3.7 mph 77% 0 in 0.00 W/m2 unknown
04:59 44.6 °F 37.4 °F 29.4 in East 2.5 mph 3.7 mph 77% 0 in 0.00 W/m2 unknown
05:04 44.6 °F 37.4 °F 29.4 in East 2.5 mph 3.7 mph 76% 0 in 0.00 W/m2 unknown
05:09 44.6 °F 37.4 °F 29.4 in East 1.2 mph 3.1 mph 78% 0 in 0.00 W/m2 unknown
05:14 44.6 °F 37.4 °F 29.4 in East 1.9 mph 3.1 mph 77% 0 in 0.00 W/m2 unknown
05:19 44.6 °F 37.4 °F 29.4 in East 3.1 mph 3.7 mph 76% 0 in 0.00 W/m2 unknown
05:24 44.6 °F 35.6 °F 29.4 in ENE 3.1 mph 3.7 mph 74% 0 in 0.00 W/m2 unknown
05:29 44.6 °F 35.6 °F 29.4 in ENE 3.1 mph 3.7 mph 74% 0 in 0.00 W/m2 unknown
05:34 44.6 °F 37.4 °F 29.4 in ENE 1.9 mph 3.7 mph 75% 0 in 0.00 W/m2 unknown
05:39 44.6 °F 37.4 °F 29.4 in ENE 1.9 mph 3.1 mph 75% 0 in 0.00 W/m2 unknown
05:44 44.6 °F 37.4 °F 29.4 in ENE 1.9 mph 3.7 mph 76% 0 in 0.00 W/m2 unknown
05:49 44.6 °F 37.4 °F 29.4 in ENE 2.5 mph 3.7 mph 76% 0 in 0.00 W/m2 unknown
05:54 44.6 °F 37.4 °F 29.4 in ENE 3.1 mph 3.7 mph 75% 0 in 0.00 W/m2 unknown
05:59 44.6 °F 37.4 °F 29.4 in ENE 2.5 mph 3.7 mph 76% 0 in 0.00 W/m2 unknown
06:04 44.6 °F 37.4 °F 29.4 in East 1.9 mph 3.7 mph 78% 0 in 0.00 W/m2 unknown
06:09 42.8 °F 37.4 °F 29.4 in East 1.2 mph 3.1 mph 79% 0 in 0.00 W/m2 unknown
06:14 42.8 °F 37.4 °F 29.4 in East 1.2 mph 2.5 mph 78% 0 in 0.00 W/m2 unknown
06:19 42.8 °F 37.4 °F 29.4 in East 2.5 mph 3.7 mph 79% 0 in 0.00 W/m2 unknown
06:24 42.8 °F 37.4 °F 29.4 in ENE 2.5 mph 3.7 mph 80% 0 in 0.00 W/m2 unknown
06:29 42.8 °F 37.4 °F 29.4 in ENE 1.9 mph 3.7 mph 80% 0 in 0.00 W/m2 unknown
06:34 42.8 °F 37.4 °F 29.4 in NE 1.9 mph 3.7 mph 80% 0 in 0.00 W/m2 unknown
06:39 42.8 °F 37.4 °F 29.4 in NNE 3.1 mph 3.7 mph 81% 0 in 0.00 W/m2 unknown
06:44 42.8 °F 37.4 °F 29.4 in NNE 3.7 mph 6.2 mph 81% 0 in 0.00 W/m2 unknown
06:49 42.8 °F 37.4 °F 29.4 in NE 3.7 mph 6.8 mph 80% 0 in 0.00 W/m2 unknown
06:54 42.8 °F 37.4 °F 29.4 in ENE 3.1 mph 6.8 mph 80% 0 in 0.00 W/m2 unknown
06:59 42.8 °F 37.4 °F 29.4 in East 3.7 mph 5 mph 80% 0 in 0.00 W/m2 unknown
07:04 42.8 °F 37.4 °F 29.5 in ESE 2.5 mph 5 mph 79% 0 in 5.00 W/m2 unknown
07:09 42.8 °F 37.4 °F 29.5 in East 1.9 mph 3.7 mph 79% 0 in 9.00 W/m2 unknown
07:14 42.8 °F 37.4 °F 29.5 in NNE 3.1 mph 5 mph 81% 0 in 18.00 W/m2 unknown
07:19 42.8 °F 37.4 °F 29.5 in NE 4.3 mph 6.2 mph 81% 0 in 23.00 W/m2 unknown
07:24 42.8 °F 37.4 °F 29.5 in NNE 5 mph 6.8 mph 81% 0 in 28.00 W/m2 unknown
07:29 42.8 °F 37.4 °F 29.5 in NNE 5 mph 6.8 mph 81% 0 in 40.00 W/m2 unknown
07:34 42.8 °F 37.4 °F 29.5 in NE 4.3 mph 6.8 mph 81% 0 in 49.00 W/m2 unknown
07:39 42.8 °F 37.4 °F 29.5 in NE 5 mph 6.8 mph 81% 0 in 58.00 W/m2 unknown
07:44 42.8 °F 37.4 °F 29.5 in NE 5 mph 6.8 mph 82% 0 in 69.00 W/m2 unknown
07:49 42.8 °F 37.4 °F 29.5 in NE 5.6 mph 6.8 mph 82% 0 in 74.00 W/m2 unknown
07:54 42.8 °F 39.2 °F 29.5 in NE 5 mph 6.8 mph 82% 0 in 83.00 W/m2 unknown
07:59 44.6 °F 39.2 °F 29.5 in NE 5.6 mph 8.1 mph 82% 0 in 95.00 W/m2 unknown
08:04 44.6 °F 39.2 °F 29.5 in NE 5 mph 8.1 mph 82% 0 in 107.00 W/m2 unknown
08:09 44.6 °F 39.2 °F 29.5 in NE 5.6 mph 8.1 mph 82% 0 in 123.00 W/m2 unknown
08:14 44.6 °F 39.2 °F 29.5 in East 6.2 mph 8.1 mph 81% 0 in 139.00 W/m2 unknown
08:19 44.6 °F 39.2 °F 29.5 in ENE 5.6 mph 6.8 mph 81% 0 in 155.00 W/m2 unknown
08:24 44.6 °F 39.2 °F 29.5 in ENE 5.6 mph 6.8 mph 80% 0 in 167.00 W/m2 unknown
08:29 44.6 °F 39.2 °F 29.5 in East 5 mph 6.8 mph 80% 0 in 185.00 W/m2 unknown
08:34 44.6 °F 39.2 °F 29.5 in East 5 mph 6.8 mph 80% 0 in 200.00 W/m2 unknown
08:39 46.4 °F 39.2 °F 29.5 in East 3.7 mph 6.8 mph 77% 0 in 216.00 W/m2 unknown
08:44 46.4 °F 39.2 °F 29.5 in ESE 3.7 mph 6.8 mph 77% 0 in 230.00 W/m2 unknown
08:49 46.4 °F 37.4 °F 29.5 in East 6.2 mph 8.1 mph 74% 0 in 244.00 W/m2 unknown
08:54 46.4 °F 37.4 °F 29.5 in East 5 mph 8.1 mph 74% 0 in 260.00 W/m2 unknown
08:59 46.4 °F 37.4 °F 29.5 in ESE 5.6 mph 6.8 mph 73% 0 in 272.00 W/m2 unknown
09:04 46.4 °F 37.4 °F 29.5 in ESE 5.6 mph 6.8 mph 71% 0 in 287.00 W/m2 unknown
09:09 46.4 °F 37.4 °F 29.5 in East 4.3 mph 5 mph 68% 0 in 302.00 W/m2 unknown
09:14 46.4 °F 37.4 °F 29.5 in ESE 5.6 mph 8.1 mph 69% 0 in 318.00 W/m2 unknown
09:19 46.4 °F 37.4 °F 29.5 in East 3.1 mph 8.1 mph 68% 0 in 336.00 W/m2 unknown
09:24 46.4 °F 37.4 °F 29.5 in East 3.1 mph 5 mph 69% 0 in 350.00 W/m2 unknown
09:29 46.4 °F 37.4 °F 29.5 in ESE 4.3 mph 6.8 mph 69% 0 in 364.00 W/m2 unknown
09:34 48.2 °F 37.4 °F 29.5 in East 3.7 mph 6.8 mph 68% 0 in 378.00 W/m2 unknown
09:39 48.2 °F 37.4 °F 29.5 in ENE 4.3 mph 6.8 mph 70% 0 in 394.00 W/m2 unknown
09:44 48.2 °F 37.4 °F 29.5 in ENE 5 mph 8.1 mph 69% 0 in 408.00 W/m2 unknown
09:49 48.2 °F 37.4 °F 29.5 in ENE 5.6 mph 8.1 mph 69% 0 in 417.00 W/m2 unknown
09:54 48.2 °F 37.4 °F 29.5 in NE 5.6 mph 8.7 mph 69% 0 in 403.00 W/m2 unknown
09:59 48.2 °F 39.2 °F 29.5 in ENE 6.2 mph 9.3 mph 70% 0 in 450.00 W/m2 unknown
10:04 48.2 °F 39.2 °F 29.5 in East 6.2 mph 8.7 mph 69% 0 in 462.00 W/m2 unknown
10:09 48.2 °F 39.2 °F 29.5 in East 5 mph 9.3 mph 69% 0 in 476.00 W/m2 unknown
10:14 50 °F 39.2 °F 29.5 in ENE 5.6 mph 8.7 mph 68% 0 in 489.00 W/m2 unknown
10:19 50 °F 39.2 °F 29.5 in ENE 5.6 mph 8.1 mph 67% 0 in 504.00 W/m2 unknown
10:24 50 °F 39.2 °F 29.5 in East 6.2 mph 8.1 mph 66% 0 in 515.00 W/m2 unknown
10:29 50 °F 39.2 °F 29.5 in ENE 6.8 mph 9.3 mph 66% 0 in 529.00 W/m2 unknown
10:34 50 °F 39.2 °F 29.5 in ESE 6.8 mph 10.6 mph 67% 0 in 541.00 W/m2 unknown
10:39 50 °F 39.2 °F 29.5 in ESE 6.2 mph 9.9 mph 66% 0 in 554.00 W/m2 unknown
10:44 50 °F 39.2 °F 29.5 in East 5.6 mph 6.8 mph 65% 0 in 566.00 W/m2 unknown
10:49 50 °F 39.2 °F 29.5 in ENE 3.7 mph 6.8 mph 64% 0 in 584.00 W/m2 unknown
10:54 51.8 °F 39.2 °F 29.5 in East 8.1 mph 10.6 mph 64% 0 in 608.00 W/m2 unknown
10:59 51.8 °F 39.2 °F 29.5 in ENE 8.1 mph 10.6 mph 62% 0 in 635.00 W/m2 unknown
11:04 51.8 °F 39.2 °F 29.5 in NNE 3.7 mph 9.9 mph 64% 0 in 654.00 W/m2 unknown
11:09 51.8 °F 39.2 °F 29.5 in East 7.5 mph 9.3 mph 63% 0 in 654.00 W/m2 unknown
11:14 51.8 °F 37.4 °F 29.5 in ENE 7.5 mph 9.3 mph 61% 0 in 642.00 W/m2 unknown
11:19 51.8 °F 39.2 °F 29.5 in East 4.3 mph 5.6 mph 62% 0 in 643.00 W/m2 unknown
11:24 53.6 °F 41 °F 29.5 in NNE 6.8 mph 8.1 mph 64% 0 in 664.00 W/m2 unknown
11:29 53.6 °F 41 °F 29.5 in ENE 7.5 mph 9.3 mph 63% 0 in 693.00 W/m2 unknown
11:34 51.8 °F 39.2 °F 29.5 in NE 6.8 mph 9.3 mph 63% 0 in 698.00 W/m2 unknown
11:39 53.6 °F 39.2 °F 29.5 in NE 8.1 mph 11.2 mph 61% 0 in 717.00 W/m2 unknown
11:44 53.6 °F 39.2 °F 29.5 in East 8.7 mph 11.8 mph 60% 0 in 728.00 W/m2 unknown
11:49 51.8 °F 41 °F 29.5 in NE 6.8 mph 11.8 mph 63% 0 in 772.00 W/m2 unknown
11:54 51.8 °F 41 °F 29.5 in NE 8.7 mph 11.8 mph 63% 0 in 779.00 W/m2 unknown
11:59 53.6 °F 39.2 °F 29.5 in NNE 8.1 mph 11.8 mph 62% 0 in 793.00 W/m2 unknown
12:04 53.6 °F 39.2 °F 29.5 in ESE 8.1 mph 10.6 mph 60% 0 in 805.00 W/m2 unknown
12:09 53.6 °F 39.2 °F 29.5 in SE 5.6 mph 9.9 mph 63% 0 in 812.00 W/m2 unknown
12:14 53.6 °F 39.2 °F 29.5 in East 10.6 mph 14.3 mph 61% 0 in 791.00 W/m2 unknown
12:19 53.6 °F 39.2 °F 29.5 in East 10.6 mph 14.3 mph 59% 0 in 780.00 W/m2 unknown
12:24 53.6 °F 37.4 °F 29.5 in ENE 8.1 mph 14.3 mph 58% 0 in 752.00 W/m2 unknown
12:29 51.8 °F 39.2 °F 29.5 in East 6.8 mph 11.2 mph 60% 0 in 765.00 W/m2 unknown
12:34 53.6 °F 39.2 °F 29.5 in East 6.8 mph 11.2 mph 61% 0 in 786.00 W/m2 unknown
12:39 53.6 °F 39.2 °F 29.5 in East 7.5 mph 13 mph 60% 0 in 800.00 W/m2 unknown
12:44 53.6 °F 39.2 °F 29.5 in East 9.3 mph 13 mph 60% 0 in 865.00 W/m2 unknown
12:49 53.6 °F 39.2 °F 29.5 in East 8.7 mph 13 mph 58% 0 in 865.00 W/m2 unknown
12:54 53.6 °F 37.4 °F 29.5 in East 10.6 mph 14.3 mph 57% 0 in 847.00 W/m2 unknown
12:59 53.6 °F 37.4 °F 29.5 in East 10.6 mph 14.3 mph 57% 0 in 881.00 W/m2 unknown
13:04 53.6 °F 37.4 °F 29.5 in East 12.4 mph 14.9 mph 58% 0 in 211.00 W/m2 unknown
13:09 53.6 °F 39.2 °F 29.5 in East 8.7 mph 14.9 mph 59% 0 in 896.00 W/m2 unknown
13:14 53.6 °F 39.2 °F 29.5 in ENE 8.7 mph 10.6 mph 60% 0 in 290.00 W/m2 unknown
13:19 53.6 °F 39.2 °F 29.5 in East 8.7 mph 11.8 mph 60% 0 in 1055.00 W/m2 unknown
13:24 55.4 °F 41 °F 29.5 in East 11.8 mph 14.3 mph 59% 0 in 1055.00 W/m2 unknown
13:29 55.4 °F 39.2 °F 29.5 in ESE 9.3 mph 14.3 mph 55% 0 in 1055.00 W/m2 unknown
13:34 55.4 °F 39.2 °F 29.5 in ESE 10.6 mph 13 mph 56% 0 in 367.00 W/m2 unknown
13:39 53.6 °F 37.4 °F 29.5 in East 11.2 mph 14.9 mph 56% 0 in 306.00 W/m2 unknown
13:44 53.6 °F 37.4 °F 29.5 in East 9.3 mph 14.9 mph 57% 0 in 292.00 W/m2 unknown
13:49 53.6 °F 37.4 °F 29.5 in ESE 8.7 mph 11.8 mph 56% 0 in 258.00 W/m2 unknown
13:54 53.6 °F 37.4 °F 29.5 in ESE 9.3 mph 11.8 mph 56% 0 in 292.00 W/m2 unknown
13:59 53.6 °F 37.4 °F 29.5 in East 8.7 mph 11.8 mph 56% 0 in 997.00 W/m2 unknown
14:04 53.6 °F 37.4 °F 29.5 in East 8.1 mph 11.8 mph 54% 0 in 429.00 W/m2 unknown
14:09 53.6 °F 37.4 °F 29.5 in East 10.6 mph 14.3 mph 53% 0 in 773.00 W/m2 unknown
14:14 53.6 °F 37.4 °F 29.5 in East 8.7 mph 14.3 mph 54% 0 in 325.00 W/m2 unknown
14:19 53.6 °F 37.4 °F 29.5 in East 11.2 mph 13 mph 53% 0 in 548.00 W/m2 unknown
14:24 53.6 °F 35.6 °F 29.5 in ESE 13 mph 16.2 mph 50% 0 in 548.00 W/m2 unknown
14:29 53.6 °F 35.6 °F 29.5 in East 13 mph 16.2 mph 51% 0 in 559.00 W/m2 unknown
14:34 53.6 °F 37.4 °F 29.5 in East 11.2 mph 16.2 mph 53% 0 in 559.00 W/m2 unknown
14:39 53.6 °F 37.4 °F 29.5 in East 12.4 mph 16.2 mph 54% 0 in 190.00 W/m2 unknown
14:44 53.6 °F 37.4 °F 29.5 in East 14.9 mph 21.1 mph 56% 0 in 225.00 W/m2 unknown
14:49 53.6 °F 37.4 °F 29.5 in ENE 14.3 mph 21.1 mph 56% 0 in 288.00 W/m2 unknown
14:54 53.6 °F 37.4 °F 29.5 in ENE 10.6 mph 21.1 mph 56% 0 in 376.00 W/m2 unknown
14:59 53.6 °F 37.4 °F 29.5 in East 9.9 mph 14.3 mph 54% 0 in 485.00 W/m2 unknown
15:04 55.4 °F 37.4 °F 29.5 in ENE 15.5 mph 21.7 mph 55% 0 in 956.00 W/m2 unknown
15:09 55.4 °F 37.4 °F 29.5 in East 13 mph 21.7 mph 52% 0 in 909.00 W/m2 unknown
15:14 55.4 °F 37.4 °F 29.5 in ENE 13.7 mph 18 mph 53% 0 in 592.00 W/m2 unknown
15:19 55.4 °F 39.2 °F 29.5 in ENE 14.9 mph 19.9 mph 55% 0 in 592.00 W/m2 unknown
15:24 55.4 °F 37.4 °F 29.5 in ENE 12.4 mph 19.9 mph 52% 0 in 362.00 W/m2 unknown
15:29 55.4 °F 37.4 °F 29.5 in ENE 16.2 mph 21.7 mph 51% 0 in 670.00 W/m2 unknown
15:34 55.4 °F 39.2 °F 29.5 in ENE 15.5 mph 23 mph 58% 0 in 860.00 W/m2 unknown
15:39 55.4 °F 41 °F 29.5 in ENE 14.3 mph 23 mph 58% 0 in 860.00 W/m2 unknown
15:44 55.4 °F 41 °F 29.5 in ENE 14.3 mph 23 mph 59% 0 in 566.00 W/m2 unknown
15:49 53.6 °F 39.2 °F 29.5 in ENE 13.7 mph 21.7 mph 58% 0 in 183.00 W/m2 unknown
15:54 53.6 °F 39.2 °F 29.6 in East 14.3 mph 21.7 mph 59% 0 in 176.00 W/m2 unknown
15:59 53.6 °F 39.2 °F 29.6 in SE 14.3 mph 21.7 mph 59% 0 in 67.00 W/m2 unknown
16:04 51.8 °F 37.4 °F 29.6 in South 14.3 mph 21.7 mph 65% 0 in 39.00 W/m2 unknown
16:09 48.2 °F 37.4 °F 29.6 in South 11.8 mph 19.9 mph 64% 0.01 in 40.00 W/m2 unknown
16:14 48.2 °F 37.4 °F 29.6 in SSE 7.5 mph 13 mph 65% 0.01 in 90.00 W/m2 unknown
16:19 50 °F 37.4 °F 29.6 in ESE 11.8 mph 18.6 mph 66% 0.01 in 148.00 W/m2 unknown
16:24 50 °F 37.4 °F 29.6 in ESE 11.8 mph 14.3 mph 63% 0.01 in 211.00 W/m2 unknown
16:29 51.8 °F 37.4 °F 29.6 in ESE 8.7 mph 14.3 mph 61% 0.01 in 227.00 W/m2 unknown
16:34 51.8 °F 37.4 °F 29.6 in East 8.1 mph 9.9 mph 60% 0.01 in 206.00 W/m2 unknown
16:39 51.8 °F 39.2 °F 29.6 in East 8.1 mph 14.9 mph 62% 0.01 in 186.00 W/m2 unknown
16:44 51.8 °F 37.4 °F 29.6 in East 12.4 mph 14.9 mph 59% 0.01 in 127.00 W/m2 unknown
16:49 51.8 °F 39.2 °F 29.6 in ENE 11.8 mph 14.9 mph 62% 0.01 in 53.00 W/m2 unknown
16:54 51.8 °F 39.2 °F 29.6 in NE 8.7 mph 14.9 mph 65% 0.01 in 28.00 W/m2 unknown
16:59 50 °F 39.2 °F 29.6 in NE 7.5 mph 13 mph 66% 0.01 in 23.00 W/m2 unknown
17:04 50 °F 39.2 °F 29.6 in East 14.3 mph 18.6 mph 65% 0.01 in 16.00 W/m2 unknown
17:09 50 °F 39.2 °F 29.6 in East 13 mph 18 mph 66% 0 in 16.00 W/m2 unknown
17:14 50 °F 39.2 °F 29.6 in East 10.6 mph 16.8 mph 69% 0 in 28.00 W/m2 unknown
17:19 48.2 °F 39.2 °F 29.6 in East 10.6 mph 14.9 mph 70% 0 in 58.00 W/m2 unknown
17:24 48.2 °F 39.2 °F 29.6 in East 11.8 mph 14.9 mph 71% 0 in 62.00 W/m2 unknown
17:29 48.2 °F 39.2 °F 29.6 in East 13 mph 19.9 mph 69% 0 in 88.00 W/m2 unknown
17:34 48.2 °F 37.4 °F 29.6 in East 11.8 mph 19.9 mph 68% 0 in 109.00 W/m2 unknown
17:39 48.2 °F 39.2 °F 29.6 in East 11.8 mph 18 mph 67% 0 in 127.00 W/m2 unknown
17:44 50 °F 39.2 °F 29.6 in East 11.2 mph 16.8 mph 67% 0 in 134.00 W/m2 unknown
17:49 50 °F 37.4 °F 29.6 in East 9.9 mph 14.9 mph 65% 0 in 146.00 W/m2 unknown
17:54 50 °F 37.4 °F 29.6 in East 9.3 mph 13 mph 65% 0 in 149.00 W/m2 unknown
17:59 50 °F 39.2 °F 29.6 in East 17.4 mph 23 mph 66% 0 in 188.00 W/m2 unknown
18:04 50 °F 39.2 °F 29.6 in East 13.7 mph 23 mph 69% 0 in 163.00 W/m2 unknown
18:09 48.2 °F 39.2 °F 29.6 in East 13 mph 18 mph 70% 0 in 125.00 W/m2 unknown
18:14 48.2 °F 39.2 °F 29.6 in ENE 10.6 mph 19.3 mph 71% 0 in 104.00 W/m2 unknown
18:19 48.2 °F 39.2 °F 29.6 in ENE 11.8 mph 19.9 mph 71% 0 in 69.00 W/m2 unknown
18:24 48.2 °F 39.2 °F 29.6 in ENE 15.5 mph 23 mph 71% 0 in 72.00 W/m2 unknown
18:29 48.2 °F 39.2 °F 29.6 in NE 16.2 mph 23 mph 70% 0 in 86.00 W/m2 unknown
18:34 48.2 °F 39.2 °F 29.6 in NE 16.8 mph 24.2 mph 71% 0 in 95.00 W/m2 unknown
18:39 48.2 °F 39.2 °F 29.6 in ENE 11.8 mph 19.9 mph 75% 0 in 95.00 W/m2 unknown
18:44 48.2 °F 39.2 °F 29.6 in ENE 13 mph 19.9 mph 75% 0 in 79.00 W/m2 unknown
18:49 46.4 °F 39.2 °F 29.6 in NE 13.7 mph 18.6 mph 74% 0 in 63.00 W/m2 unknown
18:54 46.4 °F 39.2 °F 29.6 in ENE 14.9 mph 19.9 mph 74% 0 in 60.00 W/m2 unknown
18:59 46.4 °F 39.2 °F 29.6 in ENE 14.3 mph 19.9 mph 74% 0 in 60.00 W/m2 unknown
19:04 46.4 °F 39.2 °F 29.6 in ENE 12.4 mph 17.4 mph 73% 0 in 44.00 W/m2 unknown
19:09 46.4 °F 37.4 °F 29.6 in ENE 13.7 mph 18 mph 72% 0 in 35.00 W/m2 unknown
19:14 46.4 °F 37.4 °F 29.6 in ENE 14.9 mph 19.9 mph 70% 0 in 25.00 W/m2 unknown
19:19 46.4 °F 37.4 °F 29.6 in NE 13.7 mph 19.9 mph 70% 0 in 19.00 W/m2 unknown
19:24 46.4 °F 37.4 °F 29.6 in NE 11.8 mph 19.9 mph 71% 0 in 16.00 W/m2 unknown
19:29 46.4 °F 37.4 °F 29.6 in NE 9.9 mph 16.8 mph 72% 0 in 14.00 W/m2 unknown
19:34 46.4 °F 37.4 °F 29.6 in NE 9.9 mph 14.3 mph 72% 0 in 9.00 W/m2 unknown
19:39 46.4 °F 37.4 °F 29.6 in NE 9.9 mph 13 mph 72% 0 in 5.00 W/m2 unknown
19:44 46.4 °F 37.4 °F 29.6 in ENE 9.9 mph 13 mph 71% 0 in 0.00 W/m2 unknown
19:49 46.4 °F 37.4 °F 29.6 in ENE 8.1 mph 13 mph 71% 0 in 0.00 W/m2 unknown
19:54 46.4 °F 37.4 °F 29.6 in ENE 7.5 mph 11.8 mph 71% 0 in 0.00 W/m2 unknown
19:59 46.4 °F 37.4 °F 29.6 in East 8.1 mph 13 mph 71% 0 in 0.00 W/m2 unknown
20:04 46.4 °F 39.2 °F 29.6 in ESE 9.3 mph 14.3 mph 73% 0 in 0.00 W/m2 unknown
20:09 46.4 °F 39.2 °F 29.6 in ESE 9.3 mph 14.3 mph 75% 0 in 0.00 W/m2 unknown
20:14 46.4 °F 39.2 °F 29.6 in East 8.7 mph 11.8 mph 76% 0 in 0.00 W/m2 unknown
20:19 46.4 °F 39.2 °F 29.6 in ESE 5.6 mph 11.8 mph 77% 0 in 0.00 W/m2 unknown
20:24 46.4 °F 39.2 °F 29.7 in East 4.3 mph 6.8 mph 78% 0 in 0.00 W/m2 unknown
20:29 46.4 °F 39.2 °F 29.7 in East 5.6 mph 6.8 mph 78% 0 in 0.00 W/m2 unknown
20:34 46.4 °F 39.2 °F 29.7 in East 3.1 mph 6.8 mph 79% 0 in 0.00 W/m2 unknown
20:39 44.6 °F 39.2 °F 29.7 in East 1.9 mph 5 mph 79% 0 in 0.00 W/m2 unknown
20:44 44.6 °F 39.2 °F 29.7 in East 1.9 mph 3.7 mph 79% 0 in 0.00 W/m2 unknown
20:49 44.6 °F 39.2 °F 29.7 in ENE 2.5 mph 3.7 mph 79% 0 in 0.00 W/m2 unknown
20:54 44.6 °F 39.2 °F 29.7 in ENE 1.9 mph 3.7 mph 80% 0 in 0.00 W/m2 unknown
20:59 44.6 °F 39.2 °F 29.7 in ENE 1.2 mph 2.5 mph 80% 0 in 0.00 W/m2 unknown
21:04 44.6 °F 39.2 °F 29.7 in NE 1.9 mph 2.5 mph 80% 0 in 0.00 W/m2 unknown
21:09 44.6 °F 39.2 °F 29.7 in North 2.5 mph 3.7 mph 81% 0 in 0.00 W/m2 unknown
21:14 44.6 °F 39.2 °F 29.7 in North 2.5 mph 3.7 mph 81% 0 in 0.00 W/m2 unknown
21:19 44.6 °F 39.2 °F 29.7 in North 1.9 mph 3.7 mph 82% 0 in 0.00 W/m2 unknown
21:24 44.6 °F 39.2 °F 29.7 in North 1.2 mph 2.5 mph 81% 0 in 0.00 W/m2 unknown
21:29 44.6 °F 39.2 °F 29.7 in North 1.2 mph 1.9 mph 81% 0 in 0.00 W/m2 unknown
21:34 44.6 °F 39.2 °F 29.7 in North 1.2 mph 2.5 mph 82% 0 in 0.00 W/m2 unknown
21:39 44.6 °F 39.2 °F 29.7 in North 2.5 mph 3.7 mph 82% 0 in 0.00 W/m2 unknown
21:44 44.6 °F 39.2 °F 29.7 in NNE 2.5 mph 3.7 mph 82% 0 in 0.00 W/m2 unknown
21:49 44.6 °F 39.2 °F 29.7 in NE 3.7 mph 5 mph 82% 0 in 0.00 W/m2 unknown
21:54 44.6 °F 39.2 °F 29.7 in NE 4.3 mph 6.8 mph 82% 0 in 0.00 W/m2 unknown
21:59 44.6 °F 39.2 °F 29.7 in ENE 5.6 mph 8.1 mph 82% 0 in 0.00 W/m2 unknown
22:04 44.6 °F 39.2 °F 29.7 in ENE 5 mph 8.1 mph 81% 0 in 0.00 W/m2 unknown
22:09 44.6 °F 39.2 °F 29.7 in NE 3.7 mph 8.1 mph 81% 0 in 0.00 W/m2 unknown
22:14 44.6 °F 39.2 °F 29.7 in NE 4.3 mph 5 mph 81% 0 in 0.00 W/m2 unknown
22:19 44.6 °F 39.2 °F 29.7 in NE 3.7 mph 5 mph 81% 0 in 0.00 W/m2 unknown
22:24 44.6 °F 39.2 °F 29.7 in NE 4.3 mph 5 mph 81% 0 in 0.00 W/m2 unknown
22:29 44.6 °F 39.2 °F 29.7 in ENE 4.3 mph 6.8 mph 81% 0 in 0.00 W/m2 unknown
22:34 44.6 °F 39.2 °F 29.7 in ENE 4.3 mph 6.8 mph 81% 0 in 0.00 W/m2 unknown
22:39 44.6 °F 39.2 °F 29.7 in ENE 3.1 mph 5 mph 82% 0 in 0.00 W/m2 unknown
22:44 44.6 °F 39.2 °F 29.7 in NE 3.1 mph 3.7 mph 82% 0 in 0.00 W/m2 unknown
22:49 44.6 °F 39.2 °F 29.7 in NNE 3.1 mph 3.7 mph 82% 0 in 0.00 W/m2 unknown
22:54 44.6 °F 39.2 °F 29.7 in NNE 2.5 mph 3.7 mph 82% 0 in 0.00 W/m2 unknown
22:59 44.6 °F 39.2 °F 29.7 in NNE 2.5 mph 3.7 mph 82% 0 in 0.00 W/m2 unknown
23:04 44.6 °F 39.2 °F 29.7 in NE 2.5 mph 3.7 mph 82% 0 in 0.00 W/m2 unknown
23:09 44.6 °F 39.2 °F 29.7 in NE 1.9 mph 3.7 mph 82% 0 in 0.00 W/m2 unknown
23:14 44.6 °F 39.2 °F 29.7 in NNE 2.5 mph 3.7 mph 83% 0 in 0.00 W/m2 unknown
23:19 44.6 °F 39.2 °F 29.7 in NE 3.1 mph 3.7 mph 83% 0 in 0.00 W/m2 unknown
23:24 44.6 °F 39.2 °F 29.7 in NE 3.7 mph 6.2 mph 83% 0 in 0.00 W/m2 unknown
23:29 44.6 °F 39.2 °F 29.7 in NE 3.7 mph 6.2 mph 83% 0 in 0.00 W/m2 unknown
23:34 44.6 °F 39.2 °F 29.7 in NE 3.7 mph 6.2 mph 82% 0 in 0.00 W/m2 unknown
23:39 44.6 °F 39.2 °F 29.7 in NE 3.7 mph 5 mph 82% 0 in 0.00 W/m2 unknown
23:44 44.6 °F 39.2 °F 29.7 in NNE 3.7 mph 5 mph 82% 0 in 0.00 W/m2 unknown
23:49 44.6 °F 39.2 °F 29.7 in NNE 3.1 mph 5 mph 82% 0 in 0.00 W/m2 unknown
23:54 44.6 °F 39.2 °F 29.7 in NNE 3.1 mph 3.7 mph 82% 0 in 0.00 W/m2 unknown
23:59 44.6 °F 39.2 °F 29.7 in NNE 2.5 mph 3.7 mph 82% 0 in 0.00 W/m2 unknown
Stazione Meteorologica MeteoMincio Rivalta s/M (MN)
Con i complimenti di Weather Underground - 4 mb



GLOSSARIO METEOROLOGICO
Indice di calore (Heat Index)
Utilizza la temperatura e l'umidità relativa per determinare la sensazione di calore dell'aria. Quando l'umidità è bassa, la temperatura apparente sarà minore della temperatura dell'aria, dal momento che la traspirazione evapora rapidamente e raffredda il corpo. Quando l'umidità è alta, la temperatura apparente sembrerà più alta dell'attuale temperatura dell'aria, perchè la traspirazione del corpo evapora più lentamente.
Share

Non seguire questo link o sarai bannato dal sito!